createdAt,value
2023-01-28T00:02:48.548Z,60.40
2023-01-28T00:05:50.203Z,60.46
2023-01-28T00:08:51.779Z,60.48
2023-01-28T00:11:53.521Z,60.53
2023-01-28T00:14:55.137Z,60.43
2023-01-28T00:17:56.702Z,60.62
2023-01-28T00:21:08.390Z,60.42
2023-01-28T00:24:10.023Z,60.54
2023-01-28T00:27:12.032Z,60.37
2023-01-28T00:30:14.045Z,60.50
2023-01-28T00:33:15.662Z,60.34
2023-01-28T00:36:19.034Z,60.54
2023-01-28T00:39:20.579Z,60.66
2023-01-28T00:42:22.094Z,60.58
2023-01-28T00:45:23.704Z,60.50
2023-01-28T00:48:25.261Z,60.74
2023-01-28T00:51:26.816Z,60.56
2023-01-28T00:54:28.410Z,60.61
2023-01-28T00:57:29.961Z,60.50
2023-01-28T01:00:31.597Z,60.56
2023-01-28T01:03:33.202Z,60.69
2023-01-28T01:06:39.740Z,60.74
2023-01-28T01:09:41.461Z,60.57
2023-01-28T01:12:43.072Z,60.62
2023-01-28T01:15:44.680Z,60.66
2023-01-28T01:18:46.392Z,60.74
2023-01-28T01:21:50.835Z,60.59
2023-01-28T01:24:52.485Z,60.64
2023-01-28T01:27:54.062Z,60.62
2023-01-28T01:31:07.612Z,60.66
2023-01-28T01:34:09.768Z,60.44
2023-01-28T01:37:11.447Z,60.52
2023-01-28T01:40:13.191Z,60.63
2023-01-28T01:43:20.053Z,60.56
2023-01-28T01:46:28.865Z,60.49
2023-01-28T01:49:30.492Z,60.65
2023-01-28T01:52:35.310Z,60.47
2023-01-28T01:55:41.205Z,60.54
2023-01-28T01:58:46.079Z,60.54
2023-01-28T02:01:48.563Z,60.75
2023-01-28T02:04:50.229Z,60.55
2023-01-28T02:08:17.429Z,60.85
2023-01-28T02:11:19.027Z,60.64
2023-01-28T02:14:30.896Z,60.54
2023-01-28T02:17:33.180Z,60.86
2023-01-28T02:20:37.742Z,60.64
2023-01-28T02:24:10.322Z,60.67
2023-01-28T02:27:21.493Z,60.67
2023-01-28T02:30:32.716Z,60.34
2023-01-28T02:33:52.665Z,60.39
2023-01-28T02:37:04.022Z,60.83
2023-01-28T02:40:11.390Z,60.95
2023-01-28T02:43:14.975Z,60.65
2023-01-28T02:46:44.371Z,60.60
2023-01-28T02:49:53.538Z,60.88
2023-01-28T02:53:43.898Z,60.86
2023-01-28T02:57:16.736Z,60.86
2023-01-28T03:00:41.681Z,60.68
2023-01-28T03:04:08.430Z,60.47
2023-01-28T03:07:12.600Z,60.86
2023-01-28T03:10:18.621Z,60.56
2023-01-28T03:13:38.733Z,60.67
2023-01-28T03:16:59.694Z,60.62
2023-01-28T03:20:20.020Z,60.61
2023-01-28T03:23:46.934Z,60.69
2023-01-28T03:27:17.040Z,60.45
2023-01-28T03:30:42.575Z,60.42
2023-01-28T03:34:03.824Z,60.46
2023-01-28T03:37:05.419Z,60.51
2023-01-28T03:40:08.563Z,60.50
2023-01-28T03:43:10.131Z,60.68
2023-01-28T03:46:11.730Z,60.79
2023-01-28T03:49:13.386Z,60.82
2023-01-28T03:52:19.499Z,60.70
2023-01-28T03:55:21.081Z,60.65
2023-01-28T03:58:27.283Z,60.60
2023-01-28T04:01:28.898Z,60.78
2023-01-28T04:04:32.647Z,60.58
2023-01-28T04:07:34.344Z,60.52
2023-01-28T04:10:36.004Z,60.30
2023-01-28T04:13:37.550Z,60.50
2023-01-28T04:16:39.269Z,60.74
2023-01-28T04:19:41.084Z,60.33
2023-01-28T04:22:43.452Z,60.83
2023-01-28T04:25:45.076Z,60.72
2023-01-28T04:28:46.601Z,60.49
2023-01-28T04:31:48.192Z,60.80
2023-01-28T04:34:49.715Z,60.43
2023-01-28T04:37:51.281Z,60.94
2023-01-28T04:40:53.758Z,60.49
2023-01-28T04:43:56.201Z,60.61
2023-01-28T04:46:57.779Z,60.66
2023-01-28T04:49:59.280Z,60.84
2023-01-28T04:53:00.824Z,60.46
2023-01-28T04:56:02.439Z,60.75
2023-01-28T04:59:04.006Z,60.53
2023-01-28T05:02:05.638Z,60.86
2023-01-28T05:05:09.030Z,60.61
2023-01-28T05:08:10.630Z,60.58
2023-01-28T05:11:13.306Z,60.48
2023-01-28T05:14:14.932Z,61.03
2023-01-28T05:17:16.519Z,60.52
2023-01-28T05:20:18.111Z,60.93
2023-01-28T05:23:19.704Z,60.78
2023-01-28T05:26:21.560Z,60.70
2023-01-28T05:29:23.139Z,60.75
2023-01-28T05:32:25.167Z,60.67
2023-01-28T05:35:26.877Z,61.16
2023-01-28T05:38:28.433Z,61.16
2023-01-28T05:41:30.043Z,60.45
2023-01-28T05:44:31.629Z,60.55
2023-01-28T05:47:34.254Z,60.92
2023-01-28T05:50:35.902Z,60.66
2023-01-28T05:53:37.514Z,60.48
2023-01-28T05:56:40.333Z,60.74
2023-01-28T05:59:41.913Z,60.43
2023-01-28T06:02:43.847Z,60.94
2023-01-28T06:05:45.420Z,60.68
2023-01-28T06:08:47.102Z,60.92
2023-01-28T06:11:50.335Z,60.49
2023-01-28T06:14:51.919Z,60.99
2023-01-28T06:17:53.461Z,60.50
2023-01-28T06:20:55.098Z,60.65
2023-01-28T06:23:56.711Z,60.51
2023-01-28T06:26:58.556Z,60.98
2023-01-28T06:30:00.145Z,60.68
2023-01-28T06:33:01.866Z,60.80
2023-01-28T06:36:04.645Z,60.38
2023-01-28T06:39:06.191Z,61.02
2023-01-28T06:42:07.788Z,60.24
2023-01-28T06:45:09.717Z,60.28
2023-01-28T06:48:11.256Z,60.24
2023-01-28T06:51:12.854Z,60.67
2023-01-28T06:54:14.765Z,60.23
2023-01-28T06:57:16.301Z,60.46
2023-01-28T07:00:18.796Z,60.31
2023-01-28T07:03:20.553Z,60.81
2023-01-28T07:06:22.127Z,60.01
2023-01-28T07:09:23.714Z,59.80
2023-01-28T07:12:25.316Z,60.29
2023-01-28T07:15:27.721Z,60.43
2023-01-28T07:18:29.331Z,60.30
2023-01-28T07:21:31.020Z,59.97
2023-01-28T07:24:33.050Z,60.31
2023-01-28T07:27:34.639Z,59.85
2023-01-28T07:30:36.142Z,60.28
2023-01-28T07:33:37.699Z,60.31
2023-01-28T07:36:39.353Z,60.33
2023-01-28T07:39:40.848Z,60.71
2023-01-28T07:42:42.390Z,60.79
2023-01-28T07:45:43.930Z,60.76
2023-01-28T07:48:45.790Z,60.54
2023-01-28T07:51:48.944Z,60.93
2023-01-28T07:54:50.493Z,60.60
2023-01-28T07:57:58.590Z,60.86
2023-01-28T08:01:00.956Z,61.00
2023-01-28T08:04:02.668Z,60.73
2023-01-28T08:07:07.214Z,60.73
2023-01-28T08:10:11.063Z,60.58
2023-01-28T08:13:14.036Z,60.60
2023-01-28T08:16:15.747Z,60.44
2023-01-28T08:19:18.353Z,61.29
2023-01-28T08:22:25.343Z,60.83
2023-01-28T08:25:26.853Z,60.30
2023-01-28T08:28:28.524Z,60.88
2023-01-28T08:31:30.089Z,60.33
2023-01-28T08:34:31.726Z,60.92
2023-01-28T08:37:33.288Z,61.06
2023-01-28T08:40:35.524Z,60.69
2023-01-28T08:43:37.143Z,61.04
2023-01-28T08:46:38.826Z,60.93
2023-01-28T08:49:40.564Z,61.13
2023-01-28T08:52:44.463Z,60.80
2023-01-28T08:55:46.861Z,60.96
2023-01-28T08:58:48.403Z,60.95
2023-01-28T09:01:49.946Z,61.04
2023-01-28T09:04:51.547Z,60.87
2023-01-28T09:07:53.138Z,60.43
2023-01-28T09:10:56.513Z,60.62
2023-01-28T09:13:58.835Z,60.51
2023-01-28T09:17:01.730Z,60.60
2023-01-28T09:20:04.605Z,60.71
2023-01-28T09:23:06.926Z,60.76
2023-01-28T09:26:09.479Z,60.72
2023-01-28T09:29:11.101Z,60.83
2023-01-28T09:32:12.729Z,60.84
2023-01-28T09:35:15.318Z,60.70
2023-01-28T09:38:16.946Z,60.65
2023-01-28T09:41:25.619Z,60.81
2023-01-28T09:44:59.302Z,60.81
2023-01-28T09:48:03.829Z,60.76
2023-01-28T09:51:10.715Z,60.84
2023-01-28T09:54:22.122Z,60.60
2023-01-28T09:57:26.335Z,61.06
2023-01-28T10:00:56.123Z,60.82
2023-01-28T10:04:17.738Z,60.84
2023-01-28T10:07:25.353Z,60.58
2023-01-28T10:10:34.040Z,60.80
2023-01-28T10:13:57.060Z,60.77
2023-01-28T10:17:25.738Z,60.53
2023-01-28T10:20:36.149Z,60.81
2023-01-28T10:23:58.590Z,60.77
2023-01-28T10:27:00.951Z,60.79
2023-01-28T10:30:25.557Z,60.96
2023-01-28T10:33:39.989Z,60.88
2023-01-28T10:36:42.413Z,60.56
2023-01-28T10:39:45.160Z,61.15
2023-01-28T10:42:46.702Z,60.92
2023-01-28T10:46:10.835Z,61.15
2023-01-28T10:49:15.419Z,60.91
2023-01-28T10:52:18.527Z,60.84
2023-01-28T10:55:20.126Z,60.78
2023-01-28T10:58:25.441Z,60.49
2023-01-28T11:01:39.260Z,60.54
2023-01-28T11:04:40.795Z,60.69
2023-01-28T11:07:42.522Z,60.92
2023-01-28T11:10:45.630Z,61.89
2023-01-28T11:13:51.332Z,61.91
2023-01-28T11:16:56.459Z,61.06
2023-01-28T11:20:11.192Z,60.65
2023-01-28T11:23:24.893Z,60.91
2023-01-28T11:26:31.198Z,60.50
2023-01-28T11:29:34.851Z,60.42
2023-01-28T11:32:36.505Z,60.59
2023-01-28T11:35:38.114Z,60.60
2023-01-28T11:38:52.070Z,60.32
2023-01-28T11:41:54.380Z,60.40
2023-01-28T11:44:56.007Z,60.45
2023-01-28T11:48:00.277Z,60.85
2023-01-28T11:51:17.261Z,60.63
2023-01-28T11:54:38.009Z,60.61
2023-01-28T11:57:52.464Z,60.64
2023-01-28T12:00:59.838Z,60.62
2023-01-28T12:04:10.378Z,60.62
2023-01-28T12:07:11.905Z,60.29
2023-01-28T12:10:26.876Z,60.37
2023-01-28T12:14:07.062Z,60.61
2023-01-28T12:17:33.581Z,60.53
2023-01-28T12:20:59.377Z,60.29
2023-01-28T12:24:14.495Z,60.24
2023-01-28T12:27:55.925Z,60.23
2023-01-28T12:31:15.599Z,60.37
2023-01-28T12:34:39.105Z,60.18
2023-01-28T12:38:14.617Z,60.12
2023-01-28T12:41:21.367Z,60.05
2023-01-28T12:44:38.156Z,60.12
2023-01-28T12:47:43.901Z,60.20
2023-01-28T12:50:53.597Z,60.23
2023-01-28T12:53:59.023Z,60.58
2023-01-28T12:57:03.134Z,60.46
2023-01-28T13:00:23.423Z,60.38
2023-01-28T13:03:35.379Z,60.68
2023-01-28T13:06:57.033Z,60.36
2023-01-28T13:10:20.643Z,60.64
2023-01-28T13:13:35.983Z,60.50
2023-01-28T13:16:38.241Z,60.28
2023-01-28T13:19:41.999Z,60.41
2023-01-28T13:22:45.858Z,60.16
2023-01-28T13:25:53.514Z,60.30
2023-01-28T13:29:08.365Z,60.18
2023-01-28T13:32:36.966Z,60.28
2023-01-28T13:35:40.972Z,60.08
2023-01-28T13:38:43.566Z,60.29
2023-01-28T13:41:47.781Z,60.27
2023-01-28T13:44:49.552Z,60.52
2023-01-28T13:48:01.372Z,60.27
2023-01-28T13:51:04.437Z,60.22
2023-01-28T13:54:17.101Z,60.25
2023-01-28T13:57:24.656Z,60.25
2023-01-28T14:00:50.194Z,60.03
2023-01-28T14:04:19.403Z,59.99
2023-01-28T14:07:48.479Z,60.05
2023-01-28T14:11:12.588Z,60.02
2023-01-28T14:14:32.910Z,60.42
2023-01-28T14:17:49.699Z,60.37
2023-01-28T14:20:53.455Z,60.30
2023-01-28T14:23:57.355Z,59.99
2023-01-28T14:27:08.229Z,60.00
2023-01-28T14:30:25.880Z,60.26
2023-01-28T14:33:27.907Z,60.39
2023-01-28T14:36:30.403Z,60.39
2023-01-28T14:39:53.618Z,60.27
2023-01-28T14:42:56.434Z,60.25
2023-01-28T14:46:23.339Z,60.28
2023-01-28T14:49:46.418Z,60.19
2023-01-28T14:53:15.839Z,60.18
2023-01-28T14:57:01.254Z,60.45
2023-01-28T15:00:16.638Z,60.38
2023-01-28T15:03:26.252Z,60.33
2023-01-28T15:06:35.622Z,60.44
2023-01-28T15:09:37.222Z,60.39
2023-01-28T15:12:41.122Z,60.11
2023-01-28T15:15:47.521Z,60.19
2023-01-28T15:18:50.982Z,60.07
2023-01-28T15:21:57.084Z,60.18
2023-01-28T15:24:58.762Z,60.26
2023-01-28T15:28:01.747Z,60.19
2023-01-28T15:31:03.764Z,60.32
2023-01-28T15:34:16.767Z,60.38
2023-01-28T15:37:19.283Z,60.47
2023-01-28T15:40:22.730Z,60.04
2023-01-28T15:43:30.539Z,60.05
2023-01-28T15:46:32.445Z,60.56
2023-01-28T15:49:41.611Z,60.25
2023-01-28T15:52:45.411Z,60.25
2023-01-28T15:55:46.997Z,60.05
2023-01-28T15:58:48.538Z,60.26
2023-01-28T16:01:50.222Z,60.55
2023-01-28T16:05:03.775Z,60.27
2023-01-28T16:08:27.652Z,60.56
2023-01-28T16:11:33.884Z,60.30
2023-01-28T16:14:43.655Z,60.55
2023-01-28T16:17:49.189Z,60.56
2023-01-28T16:20:50.976Z,60.19
2023-01-28T16:23:59.905Z,60.53
2023-01-28T16:27:07.155Z,60.28
2023-01-28T16:30:11.379Z,60.27
2023-01-28T16:33:20.671Z,60.50
2023-01-28T16:36:22.178Z,60.62
2023-01-28T16:39:23.784Z,60.33
2023-01-28T16:42:25.356Z,60.29
2023-01-28T16:45:27.078Z,60.37
2023-01-28T16:48:30.519Z,59.93
2023-01-28T16:51:32.497Z,59.86
2023-01-28T16:54:34.727Z,59.84
2023-01-28T16:57:38.232Z,60.02
2023-01-28T17:00:39.929Z,60.02
2023-01-28T17:03:42.242Z,60.04
2023-01-28T17:06:45.233Z,59.96
2023-01-28T17:09:46.841Z,60.09
2023-01-28T17:12:48.913Z,60.22
2023-01-28T17:15:51.045Z,60.06
2023-01-28T17:18:53.441Z,60.13
2023-01-28T17:21:54.952Z,60.03
2023-01-28T17:24:56.559Z,60.22
2023-01-28T17:27:58.137Z,60.05
2023-01-28T17:31:00.056Z,60.03
2023-01-28T17:34:02.573Z,60.11
2023-01-28T17:37:04.128Z,60.01
2023-01-28T17:40:06.371Z,59.77
2023-01-28T17:43:08.020Z,59.71
2023-01-28T17:46:14.829Z,60.16
2023-01-28T17:49:16.451Z,60.01
2023-01-28T17:52:18.086Z,60.00
2023-01-28T17:55:19.664Z,59.71
2023-01-28T17:58:21.243Z,59.94
2023-01-28T18:01:24.969Z,59.84
2023-01-28T18:04:26.583Z,60.25
2023-01-28T18:07:28.152Z,60.15
2023-01-28T18:10:29.950Z,60.07
2023-01-28T18:13:31.787Z,60.07
2023-01-28T18:16:33.381Z,60.14
2023-01-28T18:19:35.236Z,60.19
2023-01-28T18:22:36.901Z,59.99
2023-01-28T18:25:38.454Z,59.89
2023-01-28T18:28:39.974Z,60.17
2023-01-28T18:31:41.562Z,59.99
2023-01-28T18:34:43.222Z,60.20
2023-01-28T18:37:44.727Z,59.87
2023-01-28T18:40:46.705Z,60.17
2023-01-28T18:43:48.241Z,59.87
2023-01-28T18:46:51.030Z,59.81
2023-01-28T18:49:52.609Z,59.69
2023-01-28T18:52:54.351Z,59.85
2023-01-28T18:55:55.893Z,59.95
2023-01-28T18:59:01.889Z,60.04
2023-01-28T19:02:03.593Z,59.89
2023-01-28T19:05:05.445Z,59.62
2023-01-28T19:08:08.969Z,60.03
2023-01-28T19:11:10.637Z,60.16
2023-01-28T19:14:14.385Z,59.92
2023-01-28T19:17:15.937Z,60.04
2023-01-28T19:20:18.284Z,60.08
2023-01-28T19:23:20.119Z,60.08
2023-01-28T19:26:22.565Z,59.70
2023-01-28T19:29:25.615Z,59.85
2023-01-28T19:32:27.956Z,59.94
2023-01-28T19:35:29.516Z,60.07
2023-01-28T19:38:31.109Z,59.84
2023-01-28T19:41:32.885Z,59.70
2023-01-28T19:44:34.552Z,59.99
2023-01-28T19:47:36.045Z,59.75
2023-01-28T19:50:37.592Z,60.18
2023-01-28T19:53:40.666Z,60.00
2023-01-28T19:56:42.265Z,59.97
2023-01-28T19:59:43.826Z,59.97
2023-01-28T20:02:49.711Z,59.95
2023-01-28T20:05:51.251Z,59.99
2023-01-28T20:08:54.787Z,59.99
2023-01-28T20:11:56.357Z,60.11
2023-01-28T20:14:58.197Z,59.90
2023-01-28T20:17:59.749Z,60.04
2023-01-28T20:21:01.858Z,59.85
2023-01-28T20:24:04.826Z,59.72
2023-01-28T20:27:06.613Z,59.98
2023-01-28T20:30:09.122Z,59.89
2023-01-28T20:33:10.740Z,59.81
2023-01-28T20:36:13.914Z,59.88
2023-01-28T20:39:15.646Z,60.07
2023-01-28T20:42:17.260Z,59.99
2023-01-28T20:45:18.946Z,60.19
2023-01-28T20:48:20.491Z,60.22
2023-01-28T20:51:24.765Z,59.94
2023-01-28T20:54:26.317Z,60.02
2023-01-28T20:57:27.886Z,59.93
2023-01-28T21:00:29.441Z,60.21
2023-01-28T21:03:31.208Z,60.25
2023-01-28T21:06:33.278Z,60.03
2023-01-28T21:09:35.178Z,59.92
2023-01-28T21:12:36.722Z,59.94
2023-01-28T21:15:38.817Z,59.76
2023-01-28T21:18:40.497Z,60.22
2023-01-28T21:21:42.950Z,59.89
2023-01-28T21:24:46.208Z,59.95
2023-01-28T21:27:48.697Z,59.96
2023-01-28T21:30:50.262Z,60.07
2023-01-28T21:33:54.991Z,60.28
2023-01-28T21:36:56.535Z,60.29
2023-01-28T21:39:58.617Z,60.01
2023-01-28T21:43:00.537Z,59.99
2023-01-28T21:46:03.120Z,60.22
2023-01-28T21:49:08.225Z,60.13
2023-01-28T21:52:09.849Z,59.95
2023-01-28T21:55:11.392Z,59.94
2023-01-28T21:58:31.486Z,60.23
2023-01-28T22:01:33.114Z,59.99
2023-01-28T22:04:51.757Z,59.89
2023-01-28T22:07:53.255Z,60.05
2023-01-28T22:10:55.360Z,60.18
2023-01-28T22:13:56.906Z,60.12
2023-01-28T22:16:58.615Z,60.30
2023-01-28T22:20:00.286Z,59.92
2023-01-28T22:23:01.829Z,60.00
2023-01-28T22:26:03.502Z,60.08
2023-01-28T22:29:05.511Z,59.86
2023-01-28T22:32:07.550Z,60.18
2023-01-28T22:35:09.309Z,60.14
2023-01-28T22:38:11.089Z,60.09
2023-01-28T22:41:19.286Z,60.29
2023-01-28T22:44:21.009Z,60.21
2023-01-28T22:47:22.563Z,60.09
2023-01-28T22:50:24.177Z,60.18
2023-01-28T22:53:25.673Z,60.23
2023-01-28T22:56:28.689Z,60.24
2023-01-28T22:59:30.286Z,60.07
2023-01-28T23:02:31.889Z,60.36
2023-01-28T23:05:33.691Z,60.05
2023-01-28T23:08:35.255Z,60.06
2023-01-28T23:11:36.892Z,60.35
2023-01-28T23:14:56.978Z,60.42
2023-01-28T23:18:16.950Z,60.26
2023-01-28T23:21:41.535Z,59.87
2023-01-28T23:24:43.136Z,60.12
2023-01-28T23:27:44.840Z,60.13
2023-01-28T23:30:46.399Z,60.08
2023-01-28T23:33:48.044Z,60.03
2023-01-28T23:36:50.591Z,60.38
2023-01-28T23:39:52.158Z,60.14
2023-01-28T23:42:55.418Z,60.36
2023-01-28T23:45:56.966Z,60.16
2023-01-28T23:48:58.551Z,60.14
2023-01-28T23:52:01.416Z,60.54
2023-01-28T23:55:03.554Z,60.61
2023-01-28T23:58:05.364Z,60.51
